sensor_id;sensor_type;location;lat;lon;timestamp;P1;durP1;ratioP1;P2;durP2;ratioP2
9974;SDS011;5028;50.974;4.968;2023-04-03T00:02:17;5.23;;;2.90;;
9974;SDS011;5028;50.974;4.968;2023-04-03T00:04:59;3.93;;;2.90;;
9974;SDS011;5028;50.974;4.968;2023-04-03T00:07:34;5.23;;;3.10;;
9974;SDS011;5028;50.974;4.968;2023-04-03T00:10:03;4.43;;;3.07;;
9974;SDS011;5028;50.974;4.968;2023-04-03T00:12:39;4.03;;;3.00;;
9974;SDS011;5028;50.974;4.968;2023-04-03T00:15:14;4.50;;;3.20;;
9974;SDS011;5028;50.974;4.968;2023-04-03T00:17:44;4.27;;;3.00;;
9974;SDS011;5028;50.974;4.968;2023-04-03T00:20:19;4.27;;;3.00;;
9974;SDS011;5028;50.974;4.968;2023-04-03T00:22:54;4.43;;;3.20;;
9974;SDS011;5028;50.974;4.968;2023-04-03T00:25:23;4.23;;;2.80;;
9974;SDS011;5028;50.974;4.968;2023-04-03T00:27:58;4.40;;;3.10;;
9974;SDS011;5028;50.974;4.968;2023-04-03T00:30:33;3.70;;;3.00;;
9974;SDS011;5028;50.974;4.968;2023-04-03T00:33:03;3.60;;;3.07;;
9974;SDS011;5028;50.974;4.968;2023-04-03T00:35:38;4.90;;;3.17;;
9974;SDS011;5028;50.974;4.968;2023-04-03T00:38:07;4.07;;;3.07;;
9974;SDS011;5028;50.974;4.968;2023-04-03T00:40:44;4.03;;;3.10;;
9974;SDS011;5028;50.974;4.968;2023-04-03T00:43:21;4.13;;;3.10;;
9974;SDS011;5028;50.974;4.968;2023-04-03T00:45:52;4.93;;;3.13;;
9974;SDS011;5028;50.974;4.968;2023-04-03T00:48:30;3.50;;;2.83;;
9974;SDS011;5028;50.974;4.968;2023-04-03T00:51:01;3.33;;;2.83;;
9974;SDS011;5028;50.974;4.968;2023-04-03T00:53:39;4.27;;;3.13;;
9974;SDS011;5028;50.974;4.968;2023-04-03T00:56:12;3.50;;;3.17;;
9974;SDS011;5028;50.974;4.968;2023-04-03T00:58:49;4.57;;;3.00;;
9974;SDS011;5028;50.974;4.968;2023-04-03T01:01:23;3.77;;;2.80;;
9974;SDS011;5028;50.974;4.968;2023-04-03T01:04:02;4.20;;;2.97;;
9974;SDS011;5028;50.974;4.968;2023-04-03T01:06:38;5.57;;;3.27;;
9974;SDS011;5028;50.974;4.968;2023-04-03T01:09:14;3.77;;;3.20;;
9974;SDS011;5028;50.974;4.968;2023-04-03T01:11:49;5.47;;;3.53;;
9974;SDS011;5028;50.974;4.968;2023-04-03T01:14:24;3.27;;;2.93;;
9974;SDS011;5028;50.974;4.968;2023-04-03T01:16:53;5.87;;;3.53;;
9974;SDS011;5028;50.974;4.968;2023-04-03T01:19:30;5.67;;;3.40;;
9974;SDS011;5028;50.974;4.968;2023-04-03T01:22:10;5.47;;;3.43;;
9974;SDS011;5028;50.974;4.968;2023-04-03T01:24:47;4.53;;;3.57;;
9974;SDS011;5028;50.974;4.968;2023-04-03T01:27:23;3.50;;;3.20;;
9974;SDS011;5028;50.974;4.968;2023-04-03T01:29:52;4.57;;;3.10;;
9974;SDS011;5028;50.974;4.968;2023-04-03T01:32:29;4.87;;;3.53;;
9974;SDS011;5028;50.974;4.968;2023-04-03T01:34:57;4.43;;;3.23;;
9974;SDS011;5028;50.974;4.968;2023-04-03T01:37:32;4.63;;;3.47;;
9974;SDS011;5028;50.974;4.968;2023-04-03T01:40:01;4.37;;;3.40;;
9974;SDS011;5028;50.974;4.968;2023-04-03T01:42:36;5.37;;;3.40;;
9974;SDS011;5028;50.974;4.968;2023-04-03T01:45:05;4.43;;;3.27;;
9974;SDS011;5028;50.974;4.968;2023-04-03T01:47:43;5.80;;;3.60;;
9974;SDS011;5028;50.974;4.968;2023-04-03T01:50:11;4.83;;;3.40;;
9974;SDS011;5028;50.974;4.968;2023-04-03T01:52:46;6.27;;;3.33;;
9974;SDS011;5028;50.974;4.968;2023-04-03T01:55:21;7.00;;;3.70;;
9974;SDS011;5028;50.974;4.968;2023-04-03T01:57:50;4.10;;;3.33;;
9974;SDS011;5028;50.974;4.968;2023-04-03T02:00:25;4.40;;;3.30;;
9974;SDS011;5028;50.974;4.968;2023-04-03T02:03:02;4.40;;;3.60;;
9974;SDS011;5028;50.974;4.968;2023-04-03T02:05:38;4.23;;;3.40;;
9974;SDS011;5028;50.974;4.968;2023-04-03T02:08:13;5.30;;;3.70;;
9974;SDS011;5028;50.974;4.968;2023-04-03T02:10:51;3.87;;;3.50;;
9974;SDS011;5028;50.974;4.968;2023-04-03T02:13:19;5.63;;;3.30;;
9974;SDS011;5028;50.974;4.968;2023-04-03T02:15:54;5.00;;;3.43;;
9974;SDS011;5028;50.974;4.968;2023-04-03T02:18:24;4.40;;;3.20;;
9974;SDS011;5028;50.974;4.968;2023-04-03T02:21:00;4.60;;;3.40;;
9974;SDS011;5028;50.974;4.968;2023-04-03T02:23:34;5.07;;;3.67;;
9974;SDS011;5028;50.974;4.968;2023-04-03T02:26:04;6.10;;;3.53;;
9974;SDS011;5028;50.974;4.968;2023-04-03T02:28:34;3.83;;;3.33;;
9974;SDS011;5028;50.974;4.968;2023-04-03T02:31:09;7.67;;;3.43;;
9974;SDS011;5028;50.974;4.968;2023-04-03T02:33:40;3.93;;;3.40;;
9974;SDS011;5028;50.974;4.968;2023-04-03T02:36:15;4.97;;;4.20;;
9974;SDS011;5028;50.974;4.968;2023-04-03T02:38:44;5.73;;;4.00;;
9974;SDS011;5028;50.974;4.968;2023-04-03T02:41:19;6.20;;;3.90;;
9974;SDS011;5028;50.974;4.968;2023-04-03T02:43:55;7.33;;;3.97;;
9974;SDS011;5028;50.974;4.968;2023-04-03T02:46:24;11.23;;;4.00;;
9974;SDS011;5028;50.974;4.968;2023-04-03T02:49:01;5.87;;;3.83;;
9974;SDS011;5028;50.974;4.968;2023-04-03T02:51:36;5.30;;;3.80;;
9974;SDS011;5028;50.974;4.968;2023-04-03T02:54:05;6.00;;;3.70;;
9974;SDS011;5028;50.974;4.968;2023-04-03T02:56:40;4.50;;;4.10;;
9974;SDS011;5028;50.974;4.968;2023-04-03T02:59:15;5.27;;;3.93;;
9974;SDS011;5028;50.974;4.968;2023-04-03T03:01:44;5.37;;;4.00;;
9974;SDS011;5028;50.974;4.968;2023-04-03T03:04:21;4.47;;;4.07;;
9974;SDS011;5028;50.974;4.968;2023-04-03T03:06:56;5.03;;;4.10;;
9974;SDS011;5028;50.974;4.968;2023-04-03T03:09:32;5.10;;;4.40;;
9974;SDS011;5028;50.974;4.968;2023-04-03T03:12:06;5.83;;;4.90;;
9974;SDS011;5028;50.974;4.968;2023-04-03T03:14:35;4.50;;;4.10;;
9974;SDS011;5028;50.974;4.968;2023-04-03T03:17:03;5.23;;;4.47;;
9974;SDS011;5028;50.974;4.968;2023-04-03T03:19:40;5.83;;;3.90;;
9974;SDS011;5028;50.974;4.968;2023-04-03T03:22:08;7.10;;;4.80;;
9974;SDS011;5028;50.974;4.968;2023-04-03T03:24:37;6.07;;;4.80;;
9974;SDS011;5028;50.974;4.968;2023-04-03T03:27:12;5.30;;;4.80;;
9974;SDS011;5028;50.974;4.968;2023-04-03T03:29:42;6.17;;;5.23;;
9974;SDS011;5028;50.974;4.968;2023-04-03T03:32:11;8.13;;;5.40;;
9974;SDS011;5028;50.974;4.968;2023-04-03T03:34:48;8.37;;;6.23;;
9974;SDS011;5028;50.974;4.968;2023-04-03T03:37:16;7.00;;;5.97;;
9974;SDS011;5028;50.974;4.968;2023-04-03T03:39:51;6.87;;;6.17;;
9974;SDS011;5028;50.974;4.968;2023-04-03T03:42:26;8.30;;;6.10;;
9974;SDS011;5028;50.974;4.968;2023-04-03T03:44:55;6.73;;;5.50;;
9974;SDS011;5028;50.974;4.968;2023-04-03T03:47:29;8.07;;;6.57;;
9974;SDS011;5028;50.974;4.968;2023-04-03T03:50:00;11.20;;;6.63;;
9974;SDS011;5028;50.974;4.968;2023-04-03T03:52:34;7.00;;;6.33;;
9974;SDS011;5028;50.974;4.968;2023-04-03T03:55:09;7.27;;;6.00;;
9974;SDS011;5028;50.974;4.968;2023-04-03T03:57:38;8.60;;;6.10;;
9974;SDS011;5028;50.974;4.968;2023-04-03T04:00:14;6.73;;;5.57;;
9974;SDS011;5028;50.974;4.968;2023-04-03T04:02:50;8.33;;;6.30;;
9974;SDS011;5028;50.974;4.968;2023-04-03T04:05:28;7.10;;;6.27;;
9974;SDS011;5028;50.974;4.968;2023-04-03T04:08:05;7.60;;;6.33;;
9974;SDS011;5028;50.974;4.968;2023-04-03T04:10:40;7.93;;;6.87;;
9974;SDS011;5028;50.974;4.968;2023-04-03T04:13:08;8.33;;;7.23;;
9974;SDS011;5028;50.974;4.968;2023-04-03T04:15:44;11.77;;;7.20;;
9974;SDS011;5028;50.974;4.968;2023-04-03T04:18:19;7.83;;;6.57;;
9974;SDS011;5028;50.974;4.968;2023-04-03T04:20:50;8.90;;;7.03;;
9974;SDS011;5028;50.974;4.968;2023-04-03T04:23:26;8.93;;;7.37;;
9974;SDS011;5028;50.974;4.968;2023-04-03T04:25:54;8.77;;;6.90;;
9974;SDS011;5028;50.974;4.968;2023-04-03T04:28:23;10.20;;;7.20;;
9974;SDS011;5028;50.974;4.968;2023-04-03T04:30:57;8.40;;;7.50;;
9974;SDS011;5028;50.974;4.968;2023-04-03T04:33:26;7.43;;;6.73;;
9974;SDS011;5028;50.974;4.968;2023-04-03T04:35:56;9.60;;;7.13;;
9974;SDS011;5028;50.974;4.968;2023-04-03T04:38:30;7.87;;;6.97;;
9974;SDS011;5028;50.974;4.968;2023-04-03T04:40:59;8.93;;;7.17;;
9974;SDS011;5028;50.974;4.968;2023-04-03T04:43:27;9.93;;;6.70;;
9974;SDS011;5028;50.974;4.968;2023-04-03T04:46:03;9.17;;;6.63;;
9974;SDS011;5028;50.974;4.968;2023-04-03T04:48:33;7.50;;;6.53;;
9974;SDS011;5028;50.974;4.968;2023-04-03T04:51:10;8.23;;;7.17;;
9974;SDS011;5028;50.974;4.968;2023-04-03T04:53:46;10.57;;;6.53;;
9974;SDS011;5028;50.974;4.968;2023-04-03T04:56:14;8.70;;;7.03;;
9974;SDS011;5028;50.974;4.968;2023-04-03T04:58:50;9.63;;;6.80;;
9974;SDS011;5028;50.974;4.968;2023-04-03T05:01:25;11.80;;;6.90;;
9974;SDS011;5028;50.974;4.968;2023-04-03T05:03:53;8.27;;;6.70;;
9974;SDS011;5028;50.974;4.968;2023-04-03T05:06:30;8.07;;;6.87;;
9974;SDS011;5028;50.974;4.968;2023-04-03T05:09:11;9.47;;;7.40;;
9974;SDS011;5028;50.974;4.968;2023-04-03T05:11:40;8.00;;;7.23;;
9974;SDS011;5028;50.974;4.968;2023-04-03T05:14:15;8.20;;;7.03;;
9974;SDS011;5028;50.974;4.968;2023-04-03T05:16:50;9.07;;;7.03;;
9974;SDS011;5028;50.974;4.968;2023-04-03T05:19:20;8.60;;;7.47;;
9974;SDS011;5028;50.974;4.968;2023-04-03T05:21:57;7.90;;;7.10;;
9974;SDS011;5028;50.974;4.968;2023-04-03T05:24:32;9.53;;;7.33;;
9974;SDS011;5028;50.974;4.968;2023-04-03T05:27:01;8.43;;;7.63;;
9974;SDS011;5028;50.974;4.968;2023-04-03T05:29:36;10.13;;;7.13;;
9974;SDS011;5028;50.974;4.968;2023-04-03T05:32:05;9.40;;;7.47;;
9974;SDS011;5028;50.974;4.968;2023-04-03T05:34:34;8.77;;;6.93;;
9974;SDS011;5028;50.974;4.968;2023-04-03T05:37:10;8.13;;;7.03;;
9974;SDS011;5028;50.974;4.968;2023-04-03T05:39:39;9.00;;;7.60;;
9974;SDS011;5028;50.974;4.968;2023-04-03T05:42:08;9.00;;;7.53;;
9974;SDS011;5028;50.974;4.968;2023-04-03T05:44:43;8.63;;;7.70;;
9974;SDS011;5028;50.974;4.968;2023-04-03T05:47:13;10.33;;;7.70;;
9974;SDS011;5028;50.974;4.968;2023-04-03T05:49:42;9.20;;;8.27;;
9974;SDS011;5028;50.974;4.968;2023-04-03T05:52:21;9.83;;;7.57;;
9974;SDS011;5028;50.974;4.968;2023-04-03T05:54:52;11.03;;;7.87;;
9974;SDS011;5028;50.974;4.968;2023-04-03T05:57:27;8.70;;;7.73;;
9974;SDS011;5028;50.974;4.968;2023-04-03T06:00:03;10.83;;;7.63;;
9974;SDS011;5028;50.974;4.968;2023-04-03T06:02:33;10.57;;;7.40;;
9974;SDS011;5028;50.974;4.968;2023-04-03T06:05:15;8.30;;;7.47;;
9974;SDS011;5028;50.974;4.968;2023-04-03T06:07:58;8.20;;;7.40;;
9974;SDS011;5028;50.974;4.968;2023-04-03T06:10:34;7.90;;;6.80;;
9974;SDS011;5028;50.974;4.968;2023-04-03T06:13:09;8.83;;;6.93;;
9974;SDS011;5028;50.974;4.968;2023-04-03T06:15:39;10.47;;;7.47;;
9974;SDS011;5028;50.974;4.968;2023-04-03T06:18:13;13.23;;;7.47;;
9974;SDS011;5028;50.974;4.968;2023-04-03T06:20:49;7.77;;;6.50;;
9974;SDS011;5028;50.974;4.968;2023-04-03T06:23:19;7.70;;;6.33;;
9974;SDS011;5028;50.974;4.968;2023-04-03T06:25:53;7.63;;;6.23;;
9974;SDS011;5028;50.974;4.968;2023-04-03T06:28:28;9.93;;;6.10;;
9974;SDS011;5028;50.974;4.968;2023-04-03T06:30:57;7.63;;;5.83;;
9974;SDS011;5028;50.974;4.968;2023-04-03T06:33:33;6.60;;;5.60;;
9974;SDS011;5028;50.974;4.968;2023-04-03T06:36:03;5.93;;;5.27;;
9974;SDS011;5028;50.974;4.968;2023-04-03T06:38:34;7.40;;;5.33;;
9974;SDS011;5028;50.974;4.968;2023-04-03T06:41:10;8.67;;;5.33;;
9974;SDS011;5028;50.974;4.968;2023-04-03T06:43:38;6.60;;;4.80;;
9974;SDS011;5028;50.974;4.968;2023-04-03T06:46:09;5.87;;;5.10;;
9974;SDS011;5028;50.974;4.968;2023-04-03T06:48:49;7.60;;;5.17;;
9974;SDS011;5028;50.974;4.968;2023-04-03T06:51:19;8.00;;;4.87;;
9974;SDS011;5028;50.974;4.968;2023-04-03T06:53:58;9.10;;;5.10;;
9974;SDS011;5028;50.974;4.968;2023-04-03T06:56:34;6.40;;;4.83;;
9974;SDS011;5028;50.974;4.968;2023-04-03T06:59:03;6.07;;;4.63;;
9974;SDS011;5028;50.974;4.968;2023-04-03T07:01:32;5.87;;;4.37;;
9974;SDS011;5028;50.974;4.968;2023-04-03T07:04:14;6.27;;;4.60;;
9974;SDS011;5028;50.974;4.968;2023-04-03T07:06:56;6.80;;;4.47;;
9974;SDS011;5028;50.974;4.968;2023-04-03T07:09:33;7.33;;;4.57;;
9974;SDS011;5028;50.974;4.968;2023-04-03T07:12:02;6.73;;;4.07;;
9974;SDS011;5028;50.974;4.968;2023-04-03T07:14:38;7.27;;;3.90;;
9974;SDS011;5028;50.974;4.968;2023-04-03T07:17:12;8.13;;;4.20;;
9974;SDS011;5028;50.974;4.968;2023-04-03T07:19:41;7.00;;;3.80;;
9974;SDS011;5028;50.974;4.968;2023-04-03T07:22:17;5.37;;;4.13;;
9974;SDS011;5028;50.974;4.968;2023-04-03T07:24:53;6.53;;;3.83;;
9974;SDS011;5028;50.974;4.968;2023-04-03T07:27:22;3.93;;;3.53;;
9974;SDS011;5028;50.974;4.968;2023-04-03T07:29:57;6.13;;;3.77;;
9974;SDS011;5028;50.974;4.968;2023-04-03T07:32:32;5.13;;;3.80;;
9974;SDS011;5028;50.974;4.968;2023-04-03T07:35:01;6.07;;;3.73;;
9974;SDS011;5028;50.974;4.968;2023-04-03T07:37:36;7.50;;;3.73;;
9974;SDS011;5028;50.974;4.968;2023-04-03T07:40:07;5.27;;;3.77;;
9974;SDS011;5028;50.974;4.968;2023-04-03T07:42:44;5.30;;;3.47;;
9974;SDS011;5028;50.974;4.968;2023-04-03T07:45:19;6.70;;;3.53;;
9974;SDS011;5028;50.974;4.968;2023-04-03T07:47:49;5.10;;;3.10;;
9974;SDS011;5028;50.974;4.968;2023-04-03T07:50:25;5.07;;;3.23;;
9974;SDS011;5028;50.974;4.968;2023-04-03T07:52:59;5.63;;;3.27;;
9974;SDS011;5028;50.974;4.968;2023-04-03T07:55:31;5.27;;;3.10;;
9974;SDS011;5028;50.974;4.968;2023-04-03T07:58:07;4.23;;;3.10;;
9974;SDS011;5028;50.974;4.968;2023-04-03T08:00:43;6.70;;;3.17;;
9974;SDS011;5028;50.974;4.968;2023-04-03T08:03:11;5.47;;;2.87;;
9974;SDS011;5028;50.974;4.968;2023-04-03T08:06:00;4.50;;;3.17;;
9974;SDS011;5028;50.974;4.968;2023-04-03T08:08:42;4.77;;;2.77;;
9974;SDS011;5028;50.974;4.968;2023-04-03T08:11:19;5.00;;;2.97;;
9974;SDS011;5028;50.974;4.968;2023-04-03T08:13:55;5.83;;;3.50;;
9974;SDS011;5028;50.974;4.968;2023-04-03T08:16:29;4.53;;;2.97;;
9974;SDS011;5028;50.974;4.968;2023-04-03T08:18:58;3.60;;;2.80;;
9974;SDS011;5028;50.974;4.968;2023-04-03T08:21:44;7.33;;;3.37;;
9974;SDS011;5028;50.974;4.968;2023-04-03T08:24:19;5.40;;;2.80;;
9974;SDS011;5028;50.974;4.968;2023-04-03T08:26:56;5.03;;;3.00;;
9974;SDS011;5028;50.974;4.968;2023-04-03T08:29:25;5.10;;;2.90;;
9974;SDS011;5028;50.974;4.968;2023-04-03T08:32:01;6.30;;;2.70;;
9974;SDS011;5028;50.974;4.968;2023-04-03T08:34:30;6.03;;;2.80;;
9974;SDS011;5028;50.974;4.968;2023-04-03T08:37:07;4.43;;;2.43;;
9974;SDS011;5028;50.974;4.968;2023-04-03T08:39:43;4.60;;;2.50;;
9974;SDS011;5028;50.974;4.968;2023-04-03T08:42:14;3.77;;;2.50;;
9974;SDS011;5028;50.974;4.968;2023-04-03T08:44:55;4.53;;;2.50;;
9974;SDS011;5028;50.974;4.968;2023-04-03T08:47:34;4.77;;;2.50;;
9974;SDS011;5028;50.974;4.968;2023-04-03T08:50:07;3.10;;;2.23;;
9974;SDS011;5028;50.974;4.968;2023-04-03T08:52:48;4.47;;;2.50;;
9974;SDS011;5028;50.974;4.968;2023-04-03T08:55:22;5.23;;;2.60;;
9974;SDS011;5028;50.974;4.968;2023-04-03T08:58:02;5.77;;;2.50;;
9974;SDS011;5028;50.974;4.968;2023-04-03T09:00:34;3.30;;;2.40;;
9974;SDS011;5028;50.974;4.968;2023-04-03T09:03:19;3.33;;;2.30;;
9974;SDS011;5028;50.974;4.968;2023-04-03T09:05:58;4.40;;;2.43;;
9974;SDS011;5028;50.974;4.968;2023-04-03T09:08:45;5.17;;;2.27;;
9974;SDS011;5028;50.974;4.968;2023-04-03T09:11:20;5.70;;;2.50;;
9974;SDS011;5028;50.974;4.968;2023-04-03T09:14:04;3.93;;;2.33;;
9974;SDS011;5028;50.974;4.968;2023-04-03T09:16:43;7.80;;;2.53;;
9974;SDS011;5028;50.974;4.968;2023-04-03T09:19:36;3.83;;;1.83;;
9974;SDS011;5028;50.974;4.968;2023-04-03T09:22:13;4.93;;;2.60;;
9974;SDS011;5028;50.974;4.968;2023-04-03T09:24:54;4.80;;;2.30;;
9974;SDS011;5028;50.974;4.968;2023-04-03T09:27:26;4.63;;;2.37;;
9974;SDS011;5028;50.974;4.968;2023-04-03T09:30:04;4.30;;;2.10;;
9974;SDS011;5028;50.974;4.968;2023-04-03T09:32:35;6.40;;;2.23;;
9974;SDS011;5028;50.974;4.968;2023-04-03T09:35:21;6.13;;;2.40;;
9974;SDS011;5028;50.974;4.968;2023-04-03T09:38:16;5.07;;;2.20;;
9974;SDS011;5028;50.974;4.968;2023-04-03T09:41:02;2.90;;;1.93;;
9974;SDS011;5028;50.974;4.968;2023-04-03T09:43:34;4.73;;;2.20;;
9974;SDS011;5028;50.974;4.968;2023-04-03T09:46:18;3.90;;;2.03;;
9974;SDS011;5028;50.974;4.968;2023-04-03T09:48:56;4.03;;;1.87;;
9974;SDS011;5028;50.974;4.968;2023-04-03T09:51:35;3.47;;;1.93;;
9974;SDS011;5028;50.974;4.968;2023-04-03T09:57:09;4.63;;;2.17;;
9974;SDS011;5028;50.974;4.968;2023-04-03T09:59:47;4.37;;;2.10;;
9974;SDS011;5028;50.974;4.968;2023-04-03T10:02:32;4.40;;;2.10;;
9974;SDS011;5028;50.974;4.968;2023-04-03T10:05:27;5.23;;;2.23;;
9974;SDS011;5028;50.974;4.968;2023-04-03T10:08:19;2.97;;;1.90;;
9974;SDS011;5028;50.974;4.968;2023-04-03T10:11:08;2.77;;;1.70;;
9974;SDS011;5028;50.974;4.968;2023-04-03T10:13:52;2.47;;;1.67;;
9974;SDS011;5028;50.974;4.968;2023-04-03T10:16:32;2.90;;;1.67;;
9974;SDS011;5028;50.974;4.968;2023-04-03T10:19:12;3.07;;;1.80;;
9974;SDS011;5028;50.974;4.968;2023-04-03T10:22:04;4.27;;;1.90;;
9974;SDS011;5028;50.974;4.968;2023-04-03T10:24:52;2.57;;;1.80;;
9974;SDS011;5028;50.974;4.968;2023-04-03T10:27:42;3.63;;;1.80;;
9974;SDS011;5028;50.974;4.968;2023-04-03T10:30:29;2.80;;;1.90;;
9974;SDS011;5028;50.974;4.968;2023-04-03T10:33:18;4.87;;;1.80;;
9974;SDS011;5028;50.974;4.968;2023-04-03T10:36:05;3.37;;;1.63;;
9974;SDS011;5028;50.974;4.968;2023-04-03T10:38:43;2.17;;;1.30;;
9974;SDS011;5028;50.974;4.968;2023-04-03T10:41:27;3.60;;;1.70;;
9974;SDS011;5028;50.974;4.968;2023-04-03T10:44:11;3.80;;;1.73;;
9974;SDS011;5028;50.974;4.968;2023-04-03T10:46:56;4.10;;;1.50;;
9974;SDS011;5028;50.974;4.968;2023-04-03T10:49:33;3.33;;;1.40;;
9974;SDS011;5028;50.974;4.968;2023-04-03T10:52:28;4.70;;;1.53;;
9974;SDS011;5028;50.974;4.968;2023-04-03T10:55:09;3.63;;;1.60;;
9974;SDS011;5028;50.974;4.968;2023-04-03T10:57:57;3.67;;;1.37;;
9974;SDS011;5028;50.974;4.968;2023-04-03T11:00:30;3.30;;;1.60;;
9974;SDS011;5028;50.974;4.968;2023-04-03T11:03:11;2.17;;;1.43;;
9974;SDS011;5028;50.974;4.968;2023-04-03T11:05:43;2.37;;;1.30;;
9974;SDS011;5028;50.974;4.968;2023-04-03T11:08:24;3.60;;;1.47;;
9974;SDS011;5028;50.974;4.968;2023-04-03T11:11:05;3.07;;;1.60;;
9974;SDS011;5028;50.974;4.968;2023-04-03T11:13:45;2.23;;;1.50;;
9974;SDS011;5028;50.974;4.968;2023-04-03T11:16:27;2.40;;;1.33;;
9974;SDS011;5028;50.974;4.968;2023-04-03T11:19:10;2.43;;;1.43;;
9974;SDS011;5028;50.974;4.968;2023-04-03T11:21:56;2.57;;;1.40;;
9974;SDS011;5028;50.974;4.968;2023-04-03T11:24:32;2.33;;;1.20;;
9974;SDS011;5028;50.974;4.968;2023-04-03T11:27:12;1.80;;;1.40;;
9974;SDS011;5028;50.974;4.968;2023-04-03T11:29:49;1.63;;;1.17;;
9974;SDS011;5028;50.974;4.968;2023-04-03T11:32:35;1.80;;;1.30;;
9974;SDS011;5028;50.974;4.968;2023-04-03T11:35:18;2.00;;;1.27;;
9974;SDS011;5028;50.974;4.968;2023-04-03T11:37:54;3.23;;;1.30;;
9974;SDS011;5028;50.974;4.968;2023-04-03T11:40:26;2.40;;;1.20;;
9974;SDS011;5028;50.974;4.968;2023-04-03T11:43:06;5.17;;;1.50;;
9974;SDS011;5028;50.974;4.968;2023-04-03T11:45:49;1.33;;;1.13;;
9974;SDS011;5028;50.974;4.968;2023-04-03T11:54:45;1.97;;;1.20;;
9974;SDS011;5028;50.974;4.968;2023-04-03T12:06:51;2.27;;;1.30;;
9974;SDS011;5028;50.974;4.968;2023-04-03T12:09:58;2.63;;;1.40;;
9974;SDS011;5028;50.974;4.968;2023-04-03T12:12:37;2.53;;;1.80;;
9974;SDS011;5028;50.974;4.968;2023-04-03T12:21:22;2.60;;;1.57;;
9974;SDS011;5028;50.974;4.968;2023-04-03T12:24:00;2.03;;;1.33;;
9974;SDS011;5028;50.974;4.968;2023-04-03T12:26:38;4.97;;;1.60;;
9974;SDS011;5028;50.974;4.968;2023-04-03T12:29:18;4.47;;;1.67;;
9974;SDS011;5028;50.974;4.968;2023-04-03T12:32:01;2.10;;;1.40;;
9974;SDS011;5028;50.974;4.968;2023-04-03T12:34:44;4.20;;;1.60;;
9974;SDS011;5028;50.974;4.968;2023-04-03T12:37:40;2.97;;;1.50;;
9974;SDS011;5028;50.974;4.968;2023-04-03T12:40:28;3.30;;;1.50;;
9974;SDS011;5028;50.974;4.968;2023-04-03T12:43:17;2.60;;;1.20;;
9974;SDS011;5028;50.974;4.968;2023-04-03T12:46:11;5.53;;;1.67;;
9974;SDS011;5028;50.974;4.968;2023-04-03T12:48:47;1.93;;;1.40;;
9974;SDS011;5028;50.974;4.968;2023-04-03T12:51:27;3.80;;;1.60;;
9974;SDS011;5028;50.974;4.968;2023-04-03T12:54:03;3.10;;;1.90;;
9974;SDS011;5028;50.974;4.968;2023-04-03T12:56:48;2.50;;;1.67;;
9974;SDS011;5028;50.974;4.968;2023-04-03T12:59:18;1.90;;;1.30;;
9974;SDS011;5028;50.974;4.968;2023-04-03T13:01:56;2.10;;;1.40;;
9974;SDS011;5028;50.974;4.968;2023-04-03T13:04:33;3.33;;;1.17;;
9974;SDS011;5028;50.974;4.968;2023-04-03T13:07:03;1.37;;;1.23;;
9974;SDS011;5028;50.974;4.968;2023-04-03T13:09:47;2.33;;;1.50;;
9974;SDS011;5028;50.974;4.968;2023-04-03T13:12:30;2.83;;;1.77;;
9974;SDS011;5028;50.974;4.968;2023-04-03T13:15:00;4.00;;;1.30;;
9974;SDS011;5028;50.974;4.968;2023-04-03T13:17:38;2.57;;;1.40;;
9974;SDS011;5028;50.974;4.968;2023-04-03T13:20:16;2.40;;;1.27;;
9974;SDS011;5028;50.974;4.968;2023-04-03T13:23:07;2.93;;;1.57;;
9974;SDS011;5028;50.974;4.968;2023-04-03T13:25:45;2.70;;;1.23;;
9974;SDS011;5028;50.974;4.968;2023-04-03T13:28:15;2.30;;;1.40;;
9974;SDS011;5028;50.974;4.968;2023-04-03T13:30:54;1.37;;;1.07;;
9974;SDS011;5028;50.974;4.968;2023-04-03T13:33:34;1.40;;;1.30;;
9974;SDS011;5028;50.974;4.968;2023-04-03T13:36:06;1.93;;;1.37;;
9974;SDS011;5028;50.974;4.968;2023-04-03T13:38:58;2.63;;;1.40;;
9974;SDS011;5028;50.974;4.968;2023-04-03T13:41:30;1.87;;;1.40;;
9974;SDS011;5028;50.974;4.968;2023-04-03T13:44:15;1.80;;;1.40;;
9974;SDS011;5028;50.974;4.968;2023-04-03T13:47:13;2.10;;;1.30;;
9974;SDS011;5028;50.974;4.968;2023-04-03T13:49:45;2.57;;;1.30;;
9974;SDS011;5028;50.974;4.968;2023-04-03T13:52:34;2.07;;;1.60;;
9974;SDS011;5028;50.974;4.968;2023-04-03T13:55:16;1.30;;;1.20;;
9974;SDS011;5028;50.974;4.968;2023-04-03T13:57:54;2.23;;;1.20;;
9974;SDS011;5028;50.974;4.968;2023-04-03T14:00:31;3.83;;;1.70;;
9974;SDS011;5028;50.974;4.968;2023-04-03T14:03:14;3.60;;;1.40;;
9974;SDS011;5028;50.974;4.968;2023-04-03T14:05:53;1.90;;;1.40;;
9974;SDS011;5028;50.974;4.968;2023-04-03T14:08:29;2.53;;;1.43;;
9974;SDS011;5028;50.974;4.968;2023-04-03T14:11:14;2.10;;;1.40;;
9974;SDS011;5028;50.974;4.968;2023-04-03T14:13:45;4.13;;;1.40;;
9974;SDS011;5028;50.974;4.968;2023-04-03T14:16:24;1.23;;;1.10;;
9974;SDS011;5028;50.974;4.968;2023-04-03T14:18:57;3.67;;;1.40;;
9974;SDS011;5028;50.974;4.968;2023-04-03T14:21:32;5.07;;;1.60;;
9974;SDS011;5028;50.974;4.968;2023-04-03T14:24:08;2.30;;;1.53;;
9974;SDS011;5028;50.974;4.968;2023-04-03T14:26:39;2.37;;;1.60;;
9974;SDS011;5028;50.974;4.968;2023-04-03T14:29:15;3.20;;;1.70;;
9974;SDS011;5028;50.974;4.968;2023-04-03T14:31:50;2.70;;;1.80;;
9974;SDS011;5028;50.974;4.968;2023-04-03T14:34:33;3.20;;;1.70;;
9974;SDS011;5028;50.974;4.968;2023-04-03T14:37:09;3.27;;;1.63;;
9974;SDS011;5028;50.974;4.968;2023-04-03T14:39:46;2.87;;;1.60;;
9974;SDS011;5028;50.974;4.968;2023-04-03T14:42:21;1.97;;;1.57;;
9974;SDS011;5028;50.974;4.968;2023-04-03T14:44:58;1.80;;;1.50;;
9974;SDS011;5028;50.974;4.968;2023-04-03T14:47:34;2.87;;;1.80;;
9974;SDS011;5028;50.974;4.968;2023-04-03T14:50:10;2.63;;;1.70;;
9974;SDS011;5028;50.974;4.968;2023-04-03T14:52:48;2.73;;;1.60;;
9974;SDS011;5028;50.974;4.968;2023-04-03T14:55:25;3.13;;;1.63;;
9974;SDS011;5028;50.974;4.968;2023-04-03T14:57:55;3.97;;;1.90;;
9974;SDS011;5028;50.974;4.968;2023-04-03T15:00:31;4.03;;;1.80;;
9974;SDS011;5028;50.974;4.968;2023-04-03T15:02:59;3.67;;;1.80;;
9974;SDS011;5028;50.974;4.968;2023-04-03T15:05:34;2.10;;;1.80;;
9974;SDS011;5028;50.974;4.968;2023-04-03T15:08:19;4.40;;;2.10;;
9974;SDS011;5028;50.974;4.968;2023-04-03T15:10:50;2.70;;;1.80;;
9974;SDS011;5028;50.974;4.968;2023-04-03T15:13:30;2.77;;;1.60;;
9974;SDS011;5028;50.974;4.968;2023-04-03T15:15:58;1.80;;;1.53;;
9974;SDS011;5028;50.974;4.968;2023-04-03T15:18:35;2.83;;;1.83;;
9974;SDS011;5028;50.974;4.968;2023-04-03T15:21:12;4.97;;;2.20;;
9974;SDS011;5028;50.974;4.968;2023-04-03T15:23:41;3.07;;;1.90;;
9974;SDS011;5028;50.974;4.968;2023-04-03T15:26:16;2.87;;;1.70;;
9974;SDS011;5028;50.974;4.968;2023-04-03T15:28:46;2.90;;;1.83;;
9974;SDS011;5028;50.974;4.968;2023-04-03T15:31:21;2.63;;;1.93;;
9974;SDS011;5028;50.974;4.968;2023-04-03T15:33:56;6.27;;;2.20;;
9974;SDS011;5028;50.974;4.968;2023-04-03T15:36:25;4.77;;;1.90;;
9974;SDS011;5028;50.974;4.968;2023-04-03T15:39:00;5.50;;;1.87;;
9974;SDS011;5028;50.974;4.968;2023-04-03T15:41:35;2.97;;;1.77;;
9974;SDS011;5028;50.974;4.968;2023-04-03T15:44:05;5.63;;;1.60;;
9974;SDS011;5028;50.974;4.968;2023-04-03T15:46:40;3.37;;;1.83;;
9974;SDS011;5028;50.974;4.968;2023-04-03T15:49:15;1.87;;;1.43;;
9974;SDS011;5028;50.974;4.968;2023-04-03T15:51:44;2.67;;;1.40;;
9974;SDS011;5028;50.974;4.968;2023-04-03T15:54:19;1.83;;;1.40;;
9974;SDS011;5028;50.974;4.968;2023-04-03T15:56:50;4.50;;;1.73;;
9974;SDS011;5028;50.974;4.968;2023-04-03T15:59:27;2.00;;;1.63;;
9974;SDS011;5028;50.974;4.968;2023-04-03T16:01:58;4.63;;;1.90;;
9974;SDS011;5028;50.974;4.968;2023-04-03T16:04:35;3.73;;;1.63;;
9974;SDS011;5028;50.974;4.968;2023-04-03T16:07:10;3.00;;;1.80;;
9974;SDS011;5028;50.974;4.968;2023-04-03T16:09:53;2.50;;;1.50;;
9974;SDS011;5028;50.974;4.968;2023-04-03T16:12:28;3.00;;;1.50;;
9974;SDS011;5028;50.974;4.968;2023-04-03T16:15:06;3.03;;;1.93;;
9974;SDS011;5028;50.974;4.968;2023-04-03T16:17:36;4.57;;;2.07;;
9974;SDS011;5028;50.974;4.968;2023-04-03T16:20:11;4.10;;;1.63;;
9974;SDS011;5028;50.974;4.968;2023-04-03T16:22:48;2.93;;;1.70;;
9974;SDS011;5028;50.974;4.968;2023-04-03T16:25:17;3.83;;;1.90;;
9974;SDS011;5028;50.974;4.968;2023-04-03T16:27:53;3.77;;;1.97;;
9974;SDS011;5028;50.974;4.968;2023-04-03T16:30:30;5.17;;;2.20;;
9974;SDS011;5028;50.974;4.968;2023-04-03T16:32:59;3.07;;;1.90;;
9974;SDS011;5028;50.974;4.968;2023-04-03T16:35:34;3.43;;;1.70;;